Jacksonville, FL (32257)

3:12 PM EDT on August 03, 2015 (GMT -0400)
Pickwick Park | | Change Station
CLOSE
Current Station
Personal Weather Station
Location: Jacksonville, FL
Elevation: 30 ft
Nearby Weather Stations

Elev 30 ft 30.21 °N, 81.62 °W | Updated 1 minute ago

Overcast
Overcast
79.3 °F
Feels Like 82 °F
N
4.0
Wind Variable Wind from South
Gusts 7.0 mph

Today
High -- | Low -- °F
--% Chance of Precip.
Yesterday
High -- | Low -- °F
Precip. -- in
6:46 AM 8:18 PM
Waning Gibbous, 85% visible
Pressure 29.87 in
Visibility 4.0 miles
Clouds Few 700 ft
Mostly Cloudy 3500 ft
Overcast 4700 ft
Heat Index 82 °F
Dew Point 69 °F
Humidity 71%
Rainfall 0.13 in
Snow Depth Not available.
UV 4 out of 12
Pollen 2.50 out of 12
Air Quality Not available.
Flu Activity Not available.
SPECI KNIP 031905Z 25010KT 4SM RA FEW007 BKN035 OVC047 28/25 A2987 RMK AO2 T2 SET P0001 T02780250

More Conditions Fewer Conditions

Pressure 29.87 in
Visibility 4.0 miles
Clouds Few 700 ft
Mostly Cloudy 3500 ft
Overcast 4700 ft
Heat Index 82 °F
Dew Point 69 °F
Humidity 71%
Rainfall 0.13 in
Snow Depth Not available.
UV 4 out of 12
Pollen 2.50 out of 12
Air Quality Not available.
Flu Activity Not available.
SPECI KNIP 031905Z 25010KT 4SM RA FEW007 BKN035 OVC047 28/25 A2987 RMK AO2 T2 SET P0001 T02780250

More Conditions Fewer Conditions

10-Day Weather Forecast

×

Almanac

Astronomy

Aug. 03, 2015 Rise Set
Actual Time
Civil Twilight
Nautical Twilight
Astronomical Twilight
Moon
Length of Visible Light
Length of Day
Tomorrow will be .
, % of the Moon is Illuminated

Today's Extremes

State Highs State Lows

Community

WunderPhotos

Upload Photos

1,843,707 photos uploaded!

WunderBlogs® & News

Nearby

Air Quality

  Air Quality AQ Index Pollutant
Not available.

Snow Depth

Station Depth Elevation

Earthquake Activity

City Distance Mag. Time & Date
Minimum magnitude displayed is 2.5.

Coastal Water Temperatures

Place Temperature

Stations

Nearby Weather Stations

Station Location Temp. Windchill Dew Point Humidity Wind Precip. Elev Updated Type